• Join FlightAware (Why Join?)
  • Login
  • US Flag 
07:36PM EST


 

Airport Tracker/Info


-or-


 

Live Flight TrackerFlight Track Log ✈ ASQ1352 ✈ 14-Jul-2013 ✈ KCLE - KEWR

Flight Track Log - Related Links

Times and Time Zones

All times are in EDT time to prevent confusion due to time zone crossing. See the ASQ1352 flight status page for this flight to view local times or setup timezone preferences in your user account.

Time Position Orientation Groundspeed Altitude Reporting Facility
EDT Latitude Longitude Course Direction KTS MPH feet Rate Location/Type
10:49AM 41.4153 -81.8375 49° Northeast 172 198 1,900  Level Cleveland Center
10:49AM 41.4386 -81.8019 49° Northeast 200 230 3,200 2,400 Climbing Cleveland Center
10:50AM 41.4831 -81.7472 43° Northeast 277 319 5,500 2,760 Climbing Cleveland Center
10:51AM 41.5481 -81.6875 35° Northeast 290 334 8,400 2,400 Climbing Cleveland Center
10:52AM 41.6069 -81.6328 35° Northeast 295 339 10,400 1,860 Climbing Cleveland Center
10:53AM 41.6828 -81.5617 35° Northeast 309 356 12,200 1,440 Climbing Cleveland Center
10:54AM 41.7044 -81.4369 77° East 310 357 13,300 1,620 Climbing Cleveland Center
10:55AM 41.6992 -81.3006 93° East 337 388 15,500 2,760 Climbing Cleveland Center
10:56AM 41.6936 -81.1950 94° East 312 359 18,900 2,220 Climbing Cleveland Center
10:57AM 41.6900 -81.0669 92° East 307 353 20,000 1,080 Climbing Cleveland Center
10:58AM 41.6822 -80.9361 95° East 332 382 21,100 1,080 Climbing Cleveland Center
10:59AM 41.6764 -80.7889 93° East 366 421 22,200 1,020 Climbing Cleveland Center
11:00AM 41.6681 -80.6417 94° East 393 452 23,200 960 Climbing Cleveland Center
11:01AM 41.6556 -80.4886 96° East 398 458 24,200 960 Climbing Cleveland Center
11:02AM 41.6469 -80.3358 94° East 408 470 25,200 1,080 Climbing Cleveland Center
11:03AM 41.6361 -80.1803 95° East 413 475 26,400 1,320 Climbing Cleveland Center
11:04AM 41.6272 -80.0303 94° East 413 475 27,900 1,260 Climbing Cleveland Center
11:05AM 41.6139 -79.8806 97° East 408 470 29,000 540 Climbing Cleveland Center
11:06AM 41.6025 -79.7253 96° East 408 470 29,000  Level Cleveland Center
11:07AM 41.5886 -79.5586 96° East 429 494 29,100  Climbing Cleveland Center
11:08AM 41.5764 -79.3897 95° East 442 509 29,000 -60 Descending Cleveland Center
11:09AM 41.5642 -79.2150 95° East 457 526 29,000  Level Cleveland Center
11:10AM 41.5494 -79.0461 97° East 465 535 29,000  Level Cleveland Center
11:11AM 41.5367 -78.8772 96° East 465 535 29,000  Level Cleveland Center
11:12AM 41.5194 -78.7083 98° East 465 535 29,000  Level Cleveland Center
11:14AM 41.4914 -78.3906 97° East 461 531 29,000  Level New York Center
11:15AM 41.4772 -78.2228 96° East 456 525 29,000  Level New York Center
11:16AM 41.4625 -78.0547 97° East 456 525 29,000  Level New York Center
11:17AM 41.4458 -77.8842 97° East 456 525 29,000  Level New York Center
11:18AM 41.4300 -77.7275 98° East 465 535 29,000  Level New York Center
11:19AM 41.3981 -77.5608 104° East 465 535 29,000  Level New York Center
11:20AM 41.3625 -77.3803 105° East 470 541 29,000  Level New York Center
11:21AM 41.3322 -77.2117 103° East 470 541 29,000 -300 Level New York Center
11:22AM 41.2994 -77.0456 105° East 465 535 28,400 -1,080 Descending New York Center
11:23AM 41.2703 -76.8825 103° East 465 535 26,900 -1,500 Descending New York Center
11:24AM 41.2389 -76.7225 105° East 465 535 25,400 -1,500 Descending New York Center
11:25AM 41.2072 -76.5653 105° East 460 529 23,900 -1,620 Descending New York Center
11:26AM 41.1767 -76.4164 105° East 441 507 22,300 -1,680 Descending New York Center
11:27AM 41.1481 -76.2736 105° East 413 475 20,600 -1,800 Descending New York Center
11:28AM 41.1217 -76.1253 103° East 406 467 18,700 -1,680 Descending New York Center
11:29AM 41.0925 -75.9800 105° East 406 467 17,300 -1,620 Descending New York Center
11:30AM 41.0669 -75.8486 104° East 406 467 15,600 -1,740 Descending New York Center
11:31AM 41.0394 -75.7117 105° East 401 461 13,900 -1,320 Descending New York Center
11:32AM 41.0064 -75.5581 106° East 396 456 13,000 -480 Descending New York Center
11:33AM 40.9719 -75.4264 109° East 386 444 13,000 -600 Level New York Center
11:34AM 40.9369 -75.3061 111° Southeast 392 451 11,900 -1,260 Descending New York Center
11:35AM 40.9019 -75.1883 111° Southeast 372 428 10,600 -1,560 Descending New York Center
11:36AM 40.8708 -75.0739 110° East 311 358 8,800 -1,740 Descending New York Center
11:37AM 40.8428 -74.9789 111° Southeast 285 328 7,100 -1,200 Descending New York Center
11:38AM 40.8211 -74.8842 107° East 274 315 6,400 -600 Descending New York Center
11:39AM 40.8036 -74.7872 103° East 268 308 6,000 -180 Descending New York Center
11:40AM 40.7939 -74.7072 99° East 256 295 6,100  Climbing New York Center
11:41AM 40.8219 -74.6156 68° East 246 283 6,000 -60 Descending New York Center
11:42AM 40.8614 -74.5575 48° Northeast 228 262 6,000 -180 Level New York Center
11:43AM 40.9317 -74.5697 353° North 206 237 5,700 -540 Descending New York Center
11:44AM 40.9867 -74.5425 20° North 218 251 5,000 -360 Descending New York Center
11:45AM 41.0247 -74.4647 57° Northeast 213 245 5,000  Level New York Center
11:46AM 41.0522 -74.3811 66° East 233 268 5,000  Level New York Center
11:47AM 41.0569 -74.2958 86° East 239 275 5,000  Level New York Center
11:48AM 41.0403 -74.2264 108° East 206 237 5,000 -300 Level New York Center
11:49AM 41.0022 -74.1694 132° Southeast 201 231 4,500 -480 Descending New York Center
11:50AM 40.9500 -74.1000 135° Southeast 190 219 3,900 -600 Descending New York TRACON
11:51AM 40.9000 -74.0667 153° Southeast 191 220 3,100 -480 Descending New York TRACON
11:52AM 40.8500 -74.0667 180° South 183 211 3,000 -360 Descending New York TRACON
11:53AM 40.8000 -74.1000 207° Southwest 186 214 2,400 -780 Descending New York TRACON
11:54AM 40.7667 -74.1167 201° Southwest 152 175 1,500 -840 Descending New York TRACON
11:55AM 40.7333 -74.1333 201° Southwest 125 144 800 -720 Descending New York TRACON
11:57AM 40.6833 -74.1667 102° East  Level FlightAware Approximate
12:04PM 40.6925 -74.1687 102° East  Level Estimated
12:05PM 40.6925 -74.1687 102° East  Level Estimated